Time;durP1;ratioP1;P1;durP2;ratioP2;P2;SDS_P1;SDS_P2;PMS_P1;PMS_P2;Temp;Humidity;BMP_temperature;BMP_pressure;BME280_temperature;BME280_humidity;BME280_pressure;Samples;Min_cycle;Max_cycle;Signal;HPM_P1;HPM_P2
2023/05/20 00:01:33;;;;;;;5.38;1.92;;;14.40;68.10;;;;;;4993002;28;20495;-85
2023/05/20 00:03:58;;;;;;;7.00;2.30;;;14.30;68.30;;;;;;4972185;28;20064;-81
2023/05/20 00:06:24;;;;;;;9.48;2.15;;;14.30;68.80;;;;;;4976735;28;20038;-81
2023/05/20 00:08:50;;;;;;;9.80;2.30;;;14.30;68.50;;;;;;4981522;28;20030;-83
2023/05/20 00:11:15;;;;;;;7.65;3.25;;;14.30;69.40;;;;;;4994602;28;20047;-81
2023/05/20 00:13:41;;;;;;;7.30;2.20;;;14.30;69.00;;;;;;4994441;28;20034;-86
2023/05/20 00:16:06;;;;;;;7.95;3.13;;;14.30;69.20;;;;;;4995755;28;20038;-83
2023/05/20 00:18:32;;;;;;;7.07;2.15;;;14.20;69.60;;;;;;4994636;28;20022;-80
2023/05/20 00:20:58;;;;;;;6.13;2.00;;;14.20;69.50;;;;;;4995299;28;20101;-81
2023/05/20 00:23:23;;;;;;;7.35;2.65;;;14.20;69.40;;;;;;4988524;28;20026;-82
2023/05/20 00:25:49;;;;;;;6.57;2.40;;;14.10;69.60;;;;;;4995656;28;20034;-83
2023/05/20 00:28:15;;;;;;;7.20;2.22;;;14.10;70.10;;;;;;4995530;28;20059;-81
2023/05/20 00:30:41;;;;;;;6.00;2.30;;;14.00;70.70;;;;;;4995734;28;20034;-79
2023/05/20 00:33:07;;;;;;;4.75;2.00;;;14.00;70.30;;;;;;4995566;28;20027;-79
2023/05/20 00:35:32;;;;;;;11.25;2.78;;;14.00;70.40;;;;;;4995680;28;20034;-80
2023/05/20 00:37:58;;;;;;;7.97;2.33;;;14.00;70.40;;;;;;4995781;28;20026;-79
2023/05/20 00:40:24;;;;;;;5.70;1.95;;;14.00;70.90;;;;;;4994367;28;20027;-85
2023/05/20 00:42:50;;;;;;;8.63;2.45;;;14.00;71.20;;;;;;4995434;28;20106;-81
2023/05/20 00:45:16;;;;;;;6.82;2.67;;;14.00;71.30;;;;;;4994294;28;20578;-81
2023/05/20 00:47:42;;;;;;;11.63;3.05;;;13.90;71.10;;;;;;4995421;28;20475;-82
2023/05/20 00:50:09;;;;;;;5.32;1.95;;;14.00;71.40;;;;;;4995460;28;20030;-84
2023/05/20 00:52:36;;;;;;;4.88;2.05;;;14.00;71.80;;;;;;4995211;28;20031;-81
2023/05/20 00:55:02;;;;;;;7.07;2.15;;;14.00;71.80;;;;;;4994053;28;20018;-84
2023/05/20 00:57:28;;;;;;;7.53;2.60;;;14.00;71.80;;;;;;4993843;28;20029;-82
2023/05/20 00:59:54;;;;;;;10.55;2.70;;;14.00;72.20;;;;;;4995163;28;20027;-85
2023/05/20 01:02:20;;;;;;;7.20;2.17;;;14.00;72.20;;;;;;4993842;28;20431;-83
2023/05/20 01:04:46;;;;;;;5.40;2.15;;;14.00;72.30;;;;;;4995004;28;20064;-84
2023/05/20 01:07:14;;;;;;;6.85;2.53;;;14.00;72.30;;;;;;4993908;28;20050;-83
2023/05/20 01:09:40;;;;;;;8.98;3.15;;;14.00;72.40;;;;;;4995009;28;20049;-81
2023/05/20 01:12:16;;;;;;;7.45;2.70;;;13.90;72.80;;;;;;4994687;28;20042;-81
2023/05/20 01:14:59;;;;;;;10.10;2.70;;;14.00;72.60;;;;;;4993941;28;20030;-85
2023/05/20 01:17:26;;;;;;;7.65;2.20;;;13.90;72.80;;;;;;4994882;28;20019;-82
2023/05/20 01:19:53;;;;;;;7.75;2.45;;;13.90;73.10;;;;;;4993568;28;20037;-85
2023/05/20 01:22:24;;;;;;;7.60;2.67;;;13.90;73.20;;;;;;4994824;28;20030;-84
2023/05/20 01:24:52;;;;;;;9.90;2.65;;;13.90;73.80;;;;;;4994739;28;20036;-84
2023/05/20 01:27:21;;;;;;;7.47;2.53;;;13.80;73.80;;;;;;4994680;28;20030;-85
2023/05/20 01:29:49;;;;;;;8.57;2.72;;;13.80;73.90;;;;;;4994686;28;20018;-83
2023/05/20 01:32:27;;;;;;;8.60;3.13;;;13.90;74.20;;;;;;4994536;28;20537;-86
2023/05/20 01:34:53;;;;;;;6.82;2.75;;;13.90;74.50;;;;;;4993013;28;20022;-85
2023/05/20 01:37:21;;;;;;;12.60;3.10;;;13.90;74.50;;;;;;4994513;28;20026;-84
2023/05/20 01:39:49;;;;;;;9.45;3.22;;;13.90;74.60;;;;;;4994423;28;20109;-84
2023/05/20 01:42:15;;;;;;;7.10;2.55;;;13.90;74.90;;;;;;4993381;28;20030;-83
2023/05/20 01:44:41;;;;;;;8.30;3.03;;;13.90;74.70;;;;;;4994368;28;20487;-84
2023/05/20 01:47:07;;;;;;;7.55;2.60;;;13.80;74.90;;;;;;4994330;28;20023;-83
2023/05/20 01:49:33;;;;;;;5.45;2.53;;;13.90;74.80;;;;;;4994394;28;20118;-86
2023/05/20 01:51:58;;;;;;;7.88;2.75;;;13.90;75.00;;;;;;4994080;28;20030;-86
2023/05/20 01:54:24;;;;;;;7.40;2.63;;;13.90;75.10;;;;;;4977077;28;20030;-85
2023/05/20 01:56:50;;;;;;;10.65;2.97;;;13.80;75.20;;;;;;4994213;28;20026;-84
2023/05/20 01:59:16;;;;;;;9.35;3.40;;;13.90;75.40;;;;;;4994055;28;20495;-84
2023/05/20 02:01:42;;;;;;;7.43;2.10;;;13.80;75.70;;;;;;4992858;28;20078;-82
2023/05/20 02:04:07;;;;;;;8.07;3.03;;;13.80;75.40;;;;;;4992862;28;20037;-83
2023/05/20 02:06:33;;;;;;;9.88;3.10;;;13.80;75.20;;;;;;4994155;28;20034;-84
2023/05/20 02:08:59;;;;;;;8.23;2.53;;;13.80;76.30;;;;;;4994072;28;20120;-83
2023/05/20 02:11:25;;;;;;;4.72;1.92;;;13.80;75.40;;;;;;4993714;28;20050;-83
2023/05/20 02:13:50;;;;;;;8.52;2.15;;;13.80;75.60;;;;;;4992677;28;20038;-83
2023/05/20 02:16:16;;;;;;;7.93;2.60;;;13.90;75.70;;;;;;4992747;28;20038;-81
2023/05/20 02:18:42;;;;;;;7.47;2.42;;;13.80;76.00;;;;;;4994044;28;20026;-83
2023/05/20 02:21:08;;;;;;;6.13;2.15;;;13.90;76.00;;;;;;4992540;28;20773;-86
2023/05/20 02:23:34;;;;;;;11.30;3.83;;;13.80;76.00;;;;;;4994215;28;20032;-86
2023/05/20 02:26:00;;;;;;;7.28;2.20;;;13.80;76.20;;;;;;4993528;28;20026;-86
2023/05/20 02:28:26;;;;;;;7.90;2.75;;;13.80;76.20;;;;;;4992705;28;20101;-82
2023/05/20 02:30:51;;;;;;;6.47;2.58;;;13.80;76.40;;;;;;4992551;28;20062;-85
2023/05/20 02:33:18;;;;;;;8.43;2.60;;;13.80;76.40;;;;;;4992636;28;20035;-82
2023/05/20 02:35:44;;;;;;;7.40;2.55;;;13.80;76.30;;;;;;4993770;28;20035;-84
2023/05/20 02:38:11;;;;;;;6.10;2.17;;;13.80;76.60;;;;;;4993784;28;20039;-85
2023/05/20 02:40:36;;;;;;;6.10;2.35;;;13.80;76.60;;;;;;4993774;28;20027;-84
2023/05/20 02:43:02;;;;;;;8.50;3.15;;;13.80;76.50;;;;;;4992414;28;20097;-86
2023/05/20 02:45:28;;;;;;;9.45;3.38;;;13.80;76.80;;;;;;4993680;28;20034;-84
2023/05/20 02:47:53;;;;;;;11.20;3.40;;;13.80;76.90;;;;;;4992341;28;20066;-84
2023/05/20 02:50:19;;;;;;;5.53;2.35;;;13.80;77.00;;;;;;4993660;28;20089;-84
2023/05/20 02:52:45;;;;;;;8.95;3.00;;;13.70;76.90;;;;;;4993580;28;20117;-84
2023/05/20 02:55:10;;;;;;;9.02;3.15;;;13.70;77.30;;;;;;4992273;28;20062;-85
2023/05/20 02:57:37;;;;;;;7.35;2.95;;;13.70;77.30;;;;;;4993525;28;20486;-85
2023/05/20 03:00:12;;;;;;;10.27;3.22;;;13.70;77.30;;;;;;4993628;28;20030;-84
2023/05/20 03:02:38;;;;;;;7.53;3.10;;;13.60;77.30;;;;;;4992277;28;20128;-83
2023/05/20 03:05:04;;;;;;;9.52;2.70;;;13.60;77.40;;;;;;4986542;28;20031;-85
2023/05/20 03:07:30;;;;;;;8.57;2.92;;;13.60;77.60;;;;;;4982738;28;20498;-84
2023/05/20 03:09:58;;;;;;;7.07;2.55;;;13.50;77.40;;;;;;4993593;28;20042;-86
2023/05/20 03:12:25;;;;;;;7.28;2.80;;;13.50;77.70;;;;;;4993020;28;20078;-84
2023/05/20 03:14:54;;;;;;;5.95;2.55;;;13.50;77.80;;;;;;4993429;28;20034;-86
2023/05/20 03:17:20;;;;;;;6.72;2.67;;;13.40;77.80;;;;;;4993334;28;20033;-84
2023/05/20 03:19:46;;;;;;;5.22;2.05;;;13.40;78.10;;;;;;4993548;28;20026;-83
2023/05/20 03:22:11;;;;;;;8.90;2.80;;;13.40;78.50;;;;;;4993387;28;20394;-85
2023/05/20 03:24:37;;;;;;;8.35;2.53;;;13.40;78.60;;;;;;4992192;28;20030;-83
2023/05/20 03:27:03;;;;;;;10.40;3.15;;;13.30;78.90;;;;;;4993318;28;20483;-84
2023/05/20 03:29:28;;;;;;;7.10;2.83;;;13.30;78.50;;;;;;4993327;28;20104;-85
2023/05/20 03:31:54;;;;;;;8.25;2.88;;;13.20;78.90;;;;;;4993239;28;20058;-86
2023/05/20 03:34:20;;;;;;;10.38;3.75;;;13.20;79.10;;;;;;4976097;28;20083;-82
2023/05/20 03:36:45;;;;;;;6.97;2.40;;;13.20;79.50;;;;;;4993323;28;20407;-85
2023/05/20 03:39:11;;;;;;;8.35;2.05;;;13.20;79.30;;;;;;4996650;28;20455;-86
2023/05/20 03:41:37;;;;;;;8.38;2.78;;;13.20;79.40;;;;;;4996904;28;20034;-84
2023/05/20 03:44:02;;;;;;;9.38;2.70;;;13.10;79.50;;;;;;4996570;28;20030;-85
2023/05/20 03:46:29;;;;;;;6.00;2.70;;;13.20;80.00;;;;;;4995253;28;20104;-85
2023/05/20 03:48:55;;;;;;;7.72;2.92;;;13.10;79.90;;;;;;4996533;28;20026;-84
2023/05/20 03:51:21;;;;;;;6.55;2.50;;;13.10;80.00;;;;;;4995217;28;20418;-85
2023/05/20 03:53:47;;;;;;;6.35;2.75;;;13.10;79.90;;;;;;4995263;28;20072;-83
2023/05/20 03:56:12;;;;;;;7.32;2.40;;;13.10;80.00;;;;;;4996393;28;20135;-84
2023/05/20 03:58:38;;;;;;;5.63;2.20;;;13.10;80.20;;;;;;4996304;28;20031;-84
2023/05/20 04:01:04;;;;;;;7.03;1.90;;;13.10;80.30;;;;;;4995240;28;20041;-84
2023/05/20 04:03:30;;;;;;;6.13;2.28;;;13.00;80.30;;;;;;4995096;28;20117;-84
2023/05/20 04:05:55;;;;;;;7.45;2.58;;;13.10;80.60;;;;;;4996249;28;20054;-85
2023/05/20 04:08:24;;;;;;;8.75;2.97;;;13.10;80.70;;;;;;4996279;28;20030;-87
2023/05/20 04:10:50;;;;;;;6.75;2.42;;;13.10;80.80;;;;;;4994829;28;20390;-84
2023/05/20 04:13:16;;;;;;;6.60;2.42;;;13.00;80.80;;;;;;4996096;28;20038;-84
2023/05/20 04:15:41;;;;;;;6.82;2.33;;;13.00;81.00;;;;;;4995970;28;20446;-86
2023/05/20 04:18:07;;;;;;;5.78;2.63;;;13.00;81.20;;;;;;4996101;28;20026;-85
2023/05/20 04:20:33;;;;;;;10.48;3.65;;;13.00;81.10;;;;;;4995995;28;20038;-85
2023/05/20 04:22:58;;;;;;;10.63;3.42;;;13.00;81.40;;;;;;4995913;28;20038;-85
2023/05/20 04:25:24;;;;;;;4.93;2.33;;;13.00;81.70;;;;;;4978547;28;20026;-83
2023/05/20 04:27:52;;;;;;;9.00;2.70;;;13.00;81.50;;;;;;4995844;28;20514;-84
2023/05/20 04:30:20;;;;;;;9.30;2.53;;;13.00;81.40;;;;;;4995757;28;20222;-84
2023/05/20 04:32:47;;;;;;;8.52;2.65;;;13.00;81.50;;;;;;4995683;28;20022;-84
2023/05/20 04:35:13;;;;;;;5.75;2.20;;;12.90;81.70;;;;;;4962384;28;20049;-85
2023/05/20 04:37:39;;;;;;;7.57;2.83;;;13.00;81.80;;;;;;4995650;28;20022;-85
2023/05/20 04:40:05;;;;;;;8.07;2.28;;;13.00;81.80;;;;;;4994408;28;20391;-84
2023/05/20 04:42:32;;;;;;;6.20;2.38;;;13.00;81.90;;;;;;4994514;28;20550;-84
2023/05/20 04:45:00;;;;;;;10.82;2.78;;;13.00;81.80;;;;;;4978123;28;20034;-83
2023/05/20 04:47:27;;;;;;;4.50;2.13;;;13.00;81.90;;;;;;4994243;28;20062;-84
2023/05/20 04:49:56;;;;;;;6.15;2.35;;;13.10;82.00;;;;;;4995138;28;20041;-82
2023/05/20 04:52:24;;;;;;;7.25;2.80;;;13.10;82.20;;;;;;4995324;28;20502;-85
2023/05/20 04:54:51;;;;;;;5.55;2.35;;;13.10;82.20;;;;;;4995366;28;20446;-86
2023/05/20 04:57:19;;;;;;;9.98;3.03;;;13.10;82.40;;;;;;4995119;28;20034;-86
2023/05/20 04:59:46;;;;;;;4.70;2.05;;;13.10;82.40;;;;;;4995293;28;20390;-83
2023/05/20 05:02:11;;;;;;;7.18;2.55;;;13.20;82.20;;;;;;4995209;28;20422;-82
2023/05/20 05:04:37;;;;;;;6.18;2.63;;;13.10;82.10;;;;;;4993894;28;20030;-84
2023/05/20 05:07:04;;;;;;;7.05;2.88;;;13.10;82.20;;;;;;4993806;28;20062;-84
2023/05/20 05:09:29;;;;;;;7.90;2.25;;;13.20;82.10;;;;;;4995141;28;20030;-84
2023/05/20 05:11:55;;;;;;;5.53;2.13;;;13.10;82.30;;;;;;4994721;28;20392;-84
2023/05/20 05:14:22;;;;;;;6.65;3.17;;;13.20;82.50;;;;;;4989861;28;20101;-84
2023/05/20 05:16:48;;;;;;;7.60;2.97;;;13.20;82.50;;;;;;4993669;28;20125;-87
2023/05/20 05:19:13;;;;;;;6.15;2.00;;;13.30;82.50;;;;;;4993526;28;20518;-85
2023/05/20 05:21:39;;;;;;;4.75;2.00;;;13.20;82.50;;;;;;4994970;28;20475;-84
2023/05/20 05:24:05;;;;;;;7.95;2.40;;;13.30;82.50;;;;;;4993548;28;20046;-82
2023/05/20 05:26:31;;;;;;;4.93;2.20;;;13.30;82.50;;;;;;4993313;28;20030;-85
2023/05/20 05:28:56;;;;;;;7.55;2.63;;;13.30;82.30;;;;;;4994459;28;20027;-83
2023/05/20 05:31:22;;;;;;;6.78;2.30;;;13.30;82.60;;;;;;4994563;28;20045;-83
2023/05/20 05:33:48;;;;;;;7.72;2.95;;;13.40;82.60;;;;;;4993418;28;20050;-83
2023/05/20 05:36:14;;;;;;;7.75;2.70;;;13.30;82.50;;;;;;4993296;28;20139;-82
2023/05/20 05:38:39;;;;;;;6.28;2.45;;;13.40;82.60;;;;;;4994521;28;20033;-84
2023/05/20 05:41:05;;;;;;;6.78;2.35;;;13.40;82.60;;;;;;4994313;28;20022;-83
2023/05/20 05:43:30;;;;;;;6.60;2.13;;;13.50;82.50;;;;;;4994481;28;20042;-82
2023/05/20 05:45:56;;;;;;;7.32;2.42;;;13.40;82.30;;;;;;4993323;28;20058;-82
2023/05/20 05:48:22;;;;;;;5.78;2.38;;;13.50;82.30;;;;;;4994357;28;20133;-84
2023/05/20 05:50:47;;;;;;;5.82;2.60;;;13.50;82.20;;;;;;4993008;28;20510;-83
2023/05/20 05:53:13;;;;;;;8.10;2.03;;;13.60;82.20;;;;;;4989926;28;20034;-82
2023/05/20 05:55:39;;;;;;;3.92;1.73;;;13.60;82.10;;;;;;4984023;28;20033;-83
2023/05/20 05:58:04;;;;;;;3.42;1.77;;;13.60;82.10;;;;;;5006772;28;20036;-83
2023/05/20 06:00:30;;;;;;;5.22;1.90;;;13.70;82.00;;;;;;5004151;28;20069;-83
2023/05/20 06:02:56;;;;;;;4.03;1.70;;;13.70;82.00;;;;;;4998139;28;20021;-84
2023/05/20 06:05:21;;;;;;;5.43;2.47;;;13.70;81.80;;;;;;4976150;28;20042;-84
2023/05/20 06:07:47;;;;;;;5.13;1.88;;;13.80;81.90;;;;;;4973206;28;20030;-84
2023/05/20 06:10:12;;;;;;;9.57;2.67;;;13.80;81.70;;;;;;4963143;28;20039;-83
2023/05/20 06:12:38;;;;;;;7.93;2.20;;;13.90;81.90;;;;;;4981817;28;20050;-83
2023/05/20 06:15:05;;;;;;;7.35;2.70;;;13.80;81.50;;;;;;4988150;28;20026;-84
2023/05/20 06:17:31;;;;;;;6.28;1.95;;;13.90;81.40;;;;;;4992779;28;20027;-87
2023/05/20 06:19:56;;;;;;;6.88;2.28;;;13.90;81.40;;;;;;4992584;28;20060;-86
2023/05/20 06:22:22;;;;;;;6.88;2.72;;;14.00;81.40;;;;;;5009280;28;20105;-84
2023/05/20 06:24:48;;;;;;;4.55;1.98;;;14.00;81.30;;;;;;5008937;28;20475;-85
2023/05/20 06:27:13;;;;;;;6.10;1.90;;;14.10;81.30;;;;;;4993687;28;20076;-84
2023/05/20 06:29:39;;;;;;;6.40;1.90;;;14.10;81.20;;;;;;4992563;28;20065;-85
2023/05/20 06:32:05;;;;;;;5.68;1.67;;;14.10;81.20;;;;;;5002865;28;20030;-82
2023/05/20 06:34:31;;;;;;;10.48;2.08;;;14.20;81.10;;;;;;4991188;28;20093;-84
2023/05/20 06:36:57;;;;;;;3.63;1.85;;;14.20;80.80;;;;;;4993696;28;20018;-83
2023/05/20 06:39:23;;;;;;;3.63;1.67;;;14.30;80.60;;;;;;4993668;28;20022;-84
2023/05/20 06:41:50;;;;;;;5.95;1.95;;;14.30;80.40;;;;;;5008729;28;20395;-82
2023/05/20 06:44:16;;;;;;;5.13;1.83;;;14.40;80.40;;;;;;4993679;28;20035;-81
2023/05/20 06:46:42;;;;;;;7.47;1.80;;;14.40;80.10;;;;;;4993709;28;20399;-85
2023/05/20 06:49:07;;;;;;;6.65;1.48;;;14.50;79.80;;;;;;4993710;28;20034;-84
2023/05/20 06:51:33;;;;;;;3.63;1.30;;;14.50;79.70;;;;;;4989860;28;20038;-85
2023/05/20 06:53:58;;;;;;;5.13;1.40;;;14.60;79.80;;;;;;4976455;28;20085;-84
2023/05/20 06:56:24;;;;;;;6.75;1.75;;;14.60;79.60;;;;;;4973086;28;20023;-86
2023/05/20 06:58:50;;;;;;;5.70;1.80;;;14.70;79.40;;;;;;4974199;28;20031;-84
2023/05/20 07:01:15;;;;;;;7.68;1.88;;;14.70;79.30;;;;;;4972957;28;20027;-87
2023/05/20 07:03:43;;;;;;;4.57;1.58;;;14.80;78.90;;;;;;4973985;28;20037;-86
2023/05/20 07:06:08;;;;;;;3.00;1.30;;;14.80;78.70;;;;;;4974028;28;20159;-83
2023/05/20 07:08:34;;;;;;;6.85;1.77;;;14.90;78.70;;;;;;4991876;28;20483;-86
2023/05/20 07:11:00;;;;;;;4.95;1.63;;;15.00;78.50;;;;;;5028307;28;20041;-86
2023/05/20 07:13:25;;;;;;;4.07;1.13;;;15.10;78.40;;;;;;5016044;28;20034;-84
2023/05/20 07:15:51;;;;;;;3.58;1.45;;;15.10;78.20;;;;;;4997741;28;20038;-84
2023/05/20 07:18:17;;;;;;;4.53;1.77;;;15.20;78.00;;;;;;4977649;28;20369;-86
2023/05/20 07:20:43;;;;;;;2.95;1.38;;;15.30;77.70;;;;;;4977769;28;20472;-86
2023/05/20 07:23:09;;;;;;;4.03;1.45;;;15.30;77.40;;;;;;4977488;28;20062;-82
2023/05/20 07:25:35;;;;;;;4.07;1.25;;;15.40;77.00;;;;;;4977408;28;20061;-83
2023/05/20 07:28:00;;;;;;;7.75;1.80;;;15.50;77.00;;;;;;4977424;28;20054;-84
2023/05/20 07:30:26;;;;;;;3.20;1.35;;;15.60;76.80;;;;;;4977592;28;20031;-86
2023/05/20 07:32:52;;;;;;;5.88;1.70;;;15.70;76.50;;;;;;4977321;28;20134;-85
2023/05/20 07:35:18;;;;;;;4.05;1.30;;;15.70;75.90;;;;;;4976208;28;20476;-80
2023/05/20 07:37:43;;;;;;;4.35;1.52;;;15.80;75.60;;;;;;4988707;28;20033;-84
2023/05/20 07:40:09;;;;;;;5.45;1.80;;;15.90;74.90;;;;;;4996187;28;20034;-81
2023/05/20 07:42:35;;;;;;;3.50;1.20;;;15.90;74.40;;;;;;4995296;28;20048;-84
2023/05/20 07:45:01;;;;;;;5.47;1.95;;;16.00;74.50;;;;;;5011780;28;20482;-82
2023/05/20 07:47:26;;;;;;;5.47;1.73;;;16.00;73.80;;;;;;4992701;28;20093;-80
2023/05/20 07:49:52;;;;;;;4.38;1.55;;;16.10;72.80;;;;;;4985740;28;20030;-83
2023/05/20 07:52:18;;;;;;;6.55;1.60;;;16.20;72.60;;;;;;4996485;28;20030;-79
2023/05/20 07:54:43;;;;;;;4.50;1.08;;;16.20;72.70;;;;;;4996597;28;20077;-82
2023/05/20 07:57:09;;;;;;;5.65;1.50;;;16.30;72.10;;;;;;4996276;28;20030;-76
2023/05/20 07:59:35;;;;;;;3.80;1.48;;;16.30;71.70;;;;;;4996272;28;20034;-76
2023/05/20 08:02:00;;;;;;;4.78;1.88;;;16.40;71.80;;;;;;4996076;28;20106;-75
2023/05/20 08:04:26;;;;;;;3.63;1.08;;;16.50;71.60;;;;;;4996150;28;20022;-76
2023/05/20 08:06:52;;;;;;;4.50;1.15;;;16.50;71.40;;;;;;4994810;28;20038;-76
2023/05/20 08:09:18;;;;;;;4.95;1.40;;;16.60;71.00;;;;;;4996124;28;20080;-74
2023/05/20 08:11:44;;;;;;;2.20;0.90;;;16.60;71.00;;;;;;4995811;28;20088;-76
2023/05/20 08:14:10;;;;;;;3.22;1.27;;;16.70;71.00;;;;;;4996113;28;20102;-75
2023/05/20 08:16:36;;;;;;;6.32;1.63;;;16.80;70.80;;;;;;4995932;28;20030;-75
2023/05/20 08:19:02;;;;;;;5.13;1.38;;;16.80;70.40;;;;;;4995854;28;20025;-76
2023/05/20 08:21:27;;;;;;;2.70;1.10;;;16.80;70.10;;;;;;4996125;28;20027;-77
2023/05/20 08:23:53;;;;;;;3.40;1.05;;;16.90;70.20;;;;;;4995192;28;20034;-77
2023/05/20 08:26:19;;;;;;;4.63;1.08;;;17.00;69.90;;;;;;4991591;28;20031;-77
2023/05/20 08:28:45;;;;;;;3.60;1.30;;;17.00;69.70;;;;;;4981452;28;20023;-77
2023/05/20 08:31:11;;;;;;;5.43;1.45;;;17.10;69.50;;;;;;4991040;28;20027;-75
2023/05/20 08:33:36;;;;;;;3.72;0.90;;;17.20;69.30;;;;;;4986806;28;20023;-76
2023/05/20 08:36:02;;;;;;;4.13;1.23;;;17.20;69.30;;;;;;4987696;28;20038;-77
2023/05/20 08:38:28;;;;;;;3.15;1.27;;;17.30;69.00;;;;;;4981850;28;20026;-76
2023/05/20 08:40:57;;;;;;;6.72;1.30;;;17.30;68.00;;;;;;4986094;28;20033;-74
2023/05/20 08:43:23;;;;;;;2.88;1.00;;;17.30;68.00;;;;;;4992052;28;20045;-75
2023/05/20 08:45:51;;;;;;;4.22;1.08;;;17.40;67.60;;;;;;4989977;28;20113;-76
2023/05/20 08:48:17;;;;;;;3.40;1.10;;;17.40;67.20;;;;;;4986834;28;20026;-77
2023/05/20 08:50:48;;;;;;;5.75;0.98;;;17.50;67.00;;;;;;4989892;28;20387;-76
2023/05/20 08:53:13;;;;;;;5.70;1.40;;;17.50;66.70;;;;;;4989018;28;20026;-76
2023/05/20 08:55:46;;;;;;;5.03;1.30;;;17.60;66.10;;;;;;4975957;28;20042;-77
2023/05/20 08:58:14;;;;;;;3.72;1.10;;;17.60;65.70;;;;;;4983618;28;20042;-75
2023/05/20 09:00:40;;;;;;;4.88;1.20;;;17.70;66.40;;;;;;5002906;28;20509;-75
2023/05/20 09:03:06;;;;;;;2.92;1.15;;;17.70;65.70;;;;;;4990638;28;20142;-76
2023/05/20 09:05:33;;;;;;;3.40;1.15;;;17.80;65.60;;;;;;4988848;28;20467;-74
2023/05/20 09:08:06;;;;;;;5.97;1.08;;;17.90;65.70;;;;;;4991607;28;20034;-76
2023/05/20 09:10:33;;;;;;;3.13;1.13;;;17.90;64.80;;;;;;4994910;28;20386;-77
2023/05/20 09:13:03;;;;;;;5.57;1.25;;;18.00;64.50;;;;;;4996165;28;20042;-77
2023/05/20 09:15:32;;;;;;;6.88;0.90;;;18.10;64.00;;;;;;4977078;28;20427;-76
2023/05/20 09:18:06;;;;;;;3.40;0.90;;;18.20;63.70;;;;;;4985759;28;20027;-77
2023/05/20 09:20:33;;;;;;;;;;;18.20;63.30;;;;;;4982981;28;20037;-75
2023/05/20 09:23:03;;;;;;;2.03;0.90;;;18.30;62.90;;;;;;4981757;28;19910;-75
2023/05/20 09:25:29;;;;;;;3.63;0.80;;;18.30;62.70;;;;;;4991045;28;20049;-75
2023/05/20 09:27:55;;;;;;;4.43;0.82;;;18.30;62.50;;;;;;4994462;28;20501;-75
2023/05/20 09:30:21;;;;;;;3.22;0.90;;;18.40;62.20;;;;;;4986700;28;20046;-75
2023/05/20 09:32:55;;;;;;;2.45;0.70;;;18.50;61.70;;;;;;4982200;28;20104;-76
2023/05/20 09:35:22;;;;;;;2.25;0.80;;;18.50;61.40;;;;;;4984352;28;20038;-75
2023/05/20 09:37:54;;;;;;;2.33;0.80;;;18.50;61.00;;;;;;4992354;28;20073;-77
2023/05/20 09:40:26;;;;;;;3.22;0.90;;;18.60;61.00;;;;;;4993461;28;20084;-75
2023/05/20 09:43:03;;;;;;;3.20;0.70;;;18.60;60.70;;;;;;4996105;28;20030;-75
2023/05/20 09:45:29;;;;;;;2.45;0.90;;;18.80;61.00;;;;;;4987986;28;20030;-77
2023/05/20 09:47:56;;;;;;;4.32;0.88;;;18.80;60.80;;;;;;4986871;28;20038;-75
2023/05/20 09:50:24;;;;;;;3.40;0.80;;;18.90;60.40;;;;;;4986817;28;20058;-76
2023/05/20 09:52:53;;;;;;;2.92;0.80;;;19.00;60.20;;;;;;4998941;28;20031;-76
2023/05/20 09:55:20;;;;;;;4.57;1.02;;;19.00;60.10;;;;;;4988851;28;20026;-76
2023/05/20 09:57:46;;;;;;;2.25;0.75;;;19.10;60.10;;;;;;4985289;28;20463;-76
2023/05/20 10:00:16;;;;;;;2.72;0.90;;;19.20;60.40;;;;;;4989531;28;20427;-74
2023/05/20 10:02:50;;;;;;;4.40;0.88;;;19.30;59.40;;;;;;4986266;28;20031;-75
2023/05/20 10:05:26;;;;;;;4.13;0.95;;;19.40;59.20;;;;;;4973716;28;20031;-75
2023/05/20 10:08:31;;;;;;;5.15;0.80;;;19.40;59.30;;;;;;4983319;28;20048;-75
2023/05/20 10:11:20;;;;;;;3.20;1.10;;;19.50;59.40;;;;;;4990799;28;20125;-74
2023/05/20 10:14:04;;;;;;;2.97;1.13;;;19.60;59.10;;;;;;4999953;28;20036;-75
2023/05/20 10:16:37;;;;;;;3.75;1.10;;;19.70;59.00;;;;;;4981641;28;20026;-75
2023/05/20 10:19:06;;;;;;;5.20;1.20;;;19.80;58.90;;;;;;4981724;28;20430;-75
2023/05/20 10:21:32;;;;;;;5.35;1.27;;;19.80;58.60;;;;;;4983235;28;20482;-74
2023/05/20 10:24:07;;;;;;;2.63;0.85;;;19.90;58.60;;;;;;4976885;28;20073;-75
2023/05/20 10:26:37;;;;;;;5.13;1.50;;;20.20;58.40;;;;;;4989176;28;20049;-74
2023/05/20 10:29:17;;;;;;;4.55;1.10;;;20.30;58.60;;;;;;4979288;28;20089;-74
2023/05/20 10:31:50;;;;;;;6.13;1.10;;;20.50;58.90;;;;;;4981738;28;20039;-75
2023/05/20 10:34:20;;;;;;;2.22;0.90;;;20.70;58.20;;;;;;4981779;28;20038;-75
2023/05/20 10:37:06;;;;;;;4.15;0.70;;;21.10;57.30;;;;;;4984877;28;20018;-73
2023/05/20 10:39:33;;;;;;;4.68;0.88;;;21.40;56.60;;;;;;4973781;28;20439;-77
2023/05/20 10:42:10;;;;;;;4.50;0.73;;;21.70;56.40;;;;;;4974077;28;20027;-76
2023/05/20 10:44:43;;;;;;;2.58;0.77;;;22.20;55.90;;;;;;4974215;28;20023;-75
2023/05/20 10:47:09;;;;;;;3.43;0.73;;;22.50;55.40;;;;;;4976687;28;20360;-75
2023/05/20 10:49:38;;;;;;;2.10;0.80;;;22.90;54.90;;;;;;4984547;28;20383;-80
2023/05/20 10:52:08;;;;;;;2.63;1.10;;;23.40;54.20;;;;;;4996284;28;20052;-75
2023/05/20 10:54:36;;;;;;;1.40;0.63;;;23.80;53.40;;;;;;4997463;28;20058;-75
2023/05/20 10:57:08;;;;;;;2.45;0.60;;;24.20;52.70;;;;;;4983229;28;20125;-77
2023/05/20 10:59:35;;;;;;;2.33;0.60;;;24.40;52.40;;;;;;4997434;28;20026;-75
2023/05/20 11:02:01;;;;;;;1.85;0.60;;;24.60;52.30;;;;;;4997182;28;20027;-78
2023/05/20 11:04:28;;;;;;;2.30;0.90;;;24.60;51.80;;;;;;4997271;28;20029;-75
2023/05/20 11:06:54;;;;;;;4.70;0.85;;;24.50;51.70;;;;;;4996051;28;20034;-73
2023/05/20 11:09:21;;;;;;;3.88;0.90;;;24.50;51.90;;;;;;4997354;28;20027;-74
2023/05/20 11:11:47;;;;;;;6.90;1.10;;;24.40;51.80;;;;;;4996967;28;20046;-76
2023/05/20 11:14:13;;;;;;;5.32;0.98;;;24.30;51.80;;;;;;4996083;28;20038;-75
2023/05/20 11:16:40;;;;;;;3.40;0.80;;;24.10;52.00;;;;;;4996567;28;20058;-75
2023/05/20 11:19:07;;;;;;;2.15;0.70;;;24.10;52.10;;;;;;4997080;28;20480;-74
2023/05/20 11:21:33;;;;;;;4.47;0.70;;;24.20;51.50;;;;;;4996995;28;20473;-76
2023/05/20 11:23:59;;;;;;;4.00;0.70;;;24.30;51.00;;;;;;4996929;28;20022;-75
2023/05/20 11:26:25;;;;;;;3.10;0.80;;;24.50;50.70;;;;;;5011947;28;20040;-74
2023/05/20 11:28:50;;;;;;;1.48;0.50;;;24.60;50.30;;;;;;4996723;28;20270;-74
2023/05/20 11:31:17;;;;;;;1.85;0.52;;;24.90;49.90;;;;;;4996816;28;20034;-74
2023/05/20 11:33:43;;;;;;;1.98;0.60;;;25.00;49.30;;;;;;4996774;28;20026;-74
2023/05/20 11:36:09;;;;;;;3.05;0.70;;;25.20;49.00;;;;;;4996896;28;20027;-76
2023/05/20 11:38:36;;;;;;;1.90;0.60;;;25.30;48.80;;;;;;4979838;28;20031;-76
2023/05/20 11:41:01;;;;;;;2.83;0.70;;;25.40;48.60;;;;;;4975155;28;20027;-74
2023/05/20 11:43:27;;;;;;;1.95;0.57;;;25.40;48.40;;;;;;4975162;28;20030;-74
2023/05/20 11:45:56;;;;;;;1.48;0.60;;;25.40;48.10;;;;;;4975674;28;20030;-74
2023/05/20 11:48:23;;;;;;;2.97;0.70;;;25.40;47.90;;;;;;4975949;28;20027;-75
2023/05/20 11:50:48;;;;;;;1.67;0.63;;;25.50;47.90;;;;;;4974667;28;20026;-74
2023/05/20 11:53:16;;;;;;;1.45;0.65;;;25.50;47.60;;;;;;4975747;28;20034;-75
2023/05/20 11:55:58;;;;;;;2.10;0.60;;;25.60;47.60;;;;;;4976205;28;20026;-80
2023/05/20 11:58:25;;;;;;;1.75;0.50;;;25.60;47.50;;;;;;4975944;28;20015;-79
2023/05/20 12:00:50;;;;;;;5.22;0.55;;;25.60;47.50;;;;;;4976747;28;20493;-78
2023/05/20 12:03:16;;;;;;;1.75;0.75;;;25.60;47.30;;;;;;4991865;28;20106;-78
2023/05/20 12:05:42;;;;;;;1.73;0.50;;;25.60;47.00;;;;;;4976875;28;20050;-82
2023/05/20 12:08:08;;;;;;;3.58;0.75;;;25.70;46.80;;;;;;4975561;28;20069;-85
2023/05/20 12:10:36;;;;;;;1.40;0.60;;;25.70;46.60;;;;;;4976822;28;20383;-81
2023/05/20 12:13:02;;;;;;;2.10;0.60;;;25.80;46.50;;;;;;4976511;28;20519;-83
2023/05/20 12:15:28;;;;;;;2.45;0.60;;;25.80;46.40;;;;;;4976841;28;20037;-81
2023/05/20 12:17:54;;;;;;;2.15;0.57;;;25.80;46.10;;;;;;4976628;28;20015;-80
2023/05/20 12:20:23;;;;;;;1.63;0.57;;;25.90;46.10;;;;;;4991476;28;20050;-78
2023/05/20 12:22:50;;;;;;;3.22;0.50;;;26.00;46.20;;;;;;4976333;28;20497;-79
2023/05/20 12:25:18;;;;;;;1.08;0.50;;;26.30;46.30;;;;;;4976399;28;20158;-84
2023/05/20 12:27:47;;;;;;;1.50;0.50;;;26.50;46.20;;;;;;4991381;28;20484;-81
2023/05/20 12:30:19;;;;;;;3.42;0.80;;;26.70;46.70;;;;;;4975133;28;20081;-75
2023/05/20 12:32:45;;;;;;;2.25;0.60;;;26.90;45.80;;;;;;4976098;28;20028;-75
2023/05/20 12:35:11;;;;;;;1.38;0.35;;;27.00;45.70;;;;;;4976262;28;20066;-75
2023/05/20 12:37:40;;;;;;;1.30;0.55;;;27.10;45.30;;;;;;4976098;28;20098;-75
2023/05/20 12:40:07;;;;;;;3.03;0.57;;;27.20;45.10;;;;;;4975861;28;20091;-76
2023/05/20 12:42:38;;;;;;;1.90;0.50;;;27.20;44.80;;;;;;4975934;28;20027;-75
2023/05/20 12:45:05;;;;;;;4.07;0.68;;;27.20;44.70;;;;;;4975858;28;20026;-76